Cranbrook Airport
CYXC : now visible

Airfield :











YOU CAN JOIN US ON...

 
LOGIN :

Register | Disclaimer

   EN    FR    IT 

 









Legend :    VFR   Marginal VFR   IFR   Intensive IFR   Very Intensive IFR
Visi :
Ceiling :
>= 8 km
>= 3000ft
5 to 8 km
1000 to 3000 ft
1500m to 5 km
500 to 1000 ft
800 to 1500m
200 to 500 ft
< 800m
< 200 ft
Symbols :   Thunderstorms  Fog  Heavy snow  Heavy precipitations  Wind > 20 kt






- Airport Elevation : 3082 ft
- IATA code : YXC


CYXC - Cranbrook

CURRENT METAR :
  • 271740Z VRB02KT 6SM -SN SCT010 BKN030 OVC050 M01/M02 A2948 RMK SC4SC2SC2 SLP014

EXPIRED METARs :
  • 271717Z 28003KT 240V300 10SM SCT005 BKN020 BKN040 M01/M02 A2947 RMK ST3SC2SC2 SLP013
  • 271652Z 28003KT 160V300 3SM -SN BR BKN003 BKN020 OVC040 M01/M02 A2947 RMK ST5SC2SC1 VIS LWR S SLP012
  • 271641Z 15006KT 6SM -SN SCT014 BKN040 BKN150 M01/M02 A2946 RMK SC4SC1AC1 SLP008
  • 271600Z 12004KT 1 1/2SM -SN OVC014 M01/M02 A2948 RMK SN2SC6 SLP015
  • 271519Z 13006KT 1 1/2SM -SN OVC014 M01/M02 A2949 RMK SC8 SLP018
  • 271500Z 13006KT 090V150 4SM -SN BKN014 BKN027 OVC070 M01/M02 A2951 RMK SC5SC2AC1 /S01/ SLP023

TAF AMD TAF CYXC
Valid from the 27 at 17:00 until the 28 at 01:00 UTC


271709Z 2717/2801 28005KT 6SM -SN SCT003 SCT020 BKN040
TEMPO 2717/2719 1SM -SHSN BR BKN003
FM271900 28008KT P6SM SCT060 SCT150
TEMPO 2719/2801 3SM -SN BR BKN060
BECMG 2720/2722 27012G22KT RMK NXT FCST BY 271900Z
CZVR FIR / North America



MET'MAP, your aeronautical weather chart ! - Copyright ORBIFLY December 2007 - Disclaimer

ORBIFLY MET'MAP TEAM :

Programming & Development : Alexandra Zaïnal
Original concept : Baudouin d'Aumeries
Technical & hardware support : Manuel Goepfert
Assistance : Marc-Olivier Méhu




SOURCES & CREDITS :

   NOAA       Earth
Advisory